Time;durP1;ratioP1;P1;durP2;ratioP2;P2;SDS_P1;SDS_P2;PMS_P1;PMS_P2;Temp;Humidity;BMP_temperature;BMP_pressure;BME280_temperature;BME280_humidity;BME280_pressure;Samples;Min_cycle;Max_cycle;Signal;HPM_P1;HPM_P2
2023/10/03 00:00:49;;;;;;;7.75;2.97;;;;;;;13.75;66.58;99867.38;10471766;28;20051;-60
2023/10/03 00:05:51;;;;;;;14.95;4.13;;;;;;;13.74;66.80;99852.53;10469493;28;20047;-60
2023/10/03 00:10:53;;;;;;;15.68;3.72;;;;;;;13.56;66.40;99858.31;10473081;28;20386;-60
2023/10/03 00:15:56;;;;;;;8.73;3.85;;;;;;;13.44;66.68;99853.94;10474846;28;20070;-60
2023/10/03 00:20:57;;;;;;;45.90;4.20;;;;;;;13.39;67.13;99845.53;10469852;28;20044;-60
2023/10/03 00:26:00;;;;;;;10.35;3.08;;;;;;;13.45;67.10;99827.59;10473998;28;20056;-59
2023/10/03 00:31:10;;;;;;;10.93;3.60;;;;;;;13.41;67.19;99838.38;10472651;28;20416;-60
2023/10/03 00:36:18;;;;;;;30.30;4.68;;;;;;;13.46;66.91;99824.00;10457018;28;20178;-60
2023/10/03 00:41:20;;;;;;;13.00;3.35;;;;;;;13.33;67.28;99823.16;10456285;28;20070;-60
2023/10/03 00:46:23;;;;;;;13.68;3.92;;;;;;;13.36;66.89;99822.09;10475823;28;20052;-60
2023/10/03 00:51:26;;;;;;;61.42;4.63;;;;;;;13.14;66.86;99814.13;10465582;28;20082;-60
2023/10/03 00:56:30;;;;;;;10.68;3.97;;;;;;;13.11;67.07;99793.34;10468103;28;20496;-60
2023/10/03 01:01:33;;;;;;;30.17;4.03;;;;;;;13.09;67.17;99795.25;10470787;28;20056;-60
2023/10/03 01:06:35;;;;;;;17.92;3.50;;;;;;;13.18;66.87;99795.41;10452035;28;20082;-60
2023/10/03 01:11:37;;;;;;;13.18;3.45;;;;;;;13.17;67.14;99785.84;10454523;28;20488;-60
2023/10/03 01:16:39;;;;;;;9.63;2.58;;;;;;;13.15;67.07;99776.41;10475781;28;20406;-60
2023/10/03 01:21:42;;;;;;;22.38;3.88;;;;;;;13.18;67.29;99770.94;10478773;28;20051;-60
2023/10/03 01:26:44;;;;;;;31.27;3.47;;;;;;;13.21;67.28;99766.28;10481620;28;20329;-60
2023/10/03 01:31:52;;;;;;;47.58;4.20;;;;;;;13.21;66.96;99765.47;10475230;28;20219;-60
2023/10/03 01:36:55;;;;;;;48.00;3.58;;;;;;;12.98;67.17;99754.00;10458576;28;20763;-60
2023/10/03 01:41:57;;;;;;;6.90;2.75;;;;;;;13.02;67.29;99752.84;10431563;28;20057;-60
2023/10/03 01:47:01;;;;;;;10.23;3.97;;;;;;;13.11;67.16;99740.84;10478075;28;20055;-59
2023/10/03 01:52:03;;;;;;;59.45;4.57;;;;;;;13.21;67.11;99731.31;10448534;28;20559;-60
2023/10/03 01:57:06;;;;;;;32.63;4.50;;;;;;;13.16;67.00;99722.94;10472539;28;20506;-59
2023/10/03 02:02:08;;;;;;;6.53;2.90;;;;;;;12.94;67.29;99714.00;10467077;28;20040;-60
2023/10/03 02:07:12;;;;;;;6.43;3.13;;;;;;;13.03;67.32;99712.50;10479822;28;20062;-59
2023/10/03 02:12:14;;;;;;;5.57;2.80;;;;;;;13.16;67.12;99708.03;10463958;28;20045;-60
2023/10/03 02:17:17;;;;;;;5.80;3.13;;;;;;;13.20;66.99;99698.13;10469849;28;20512;-59
2023/10/03 02:22:22;;;;;;;6.75;2.88;;;;;;;13.13;67.08;99696.91;10454442;28;20048;-59
2023/10/03 02:27:26;;;;;;;6.57;2.88;;;;;;;13.24;66.80;99686.44;10464788;28;20056;-60
2023/10/03 02:32:30;;;;;;;7.95;3.15;;;;;;;13.28;66.40;99687.88;10477392;28;20052;-60
2023/10/03 02:37:33;;;;;;;7.45;3.08;;;;;;;13.28;66.52;99672.13;10477390;28;20041;-59
2023/10/03 02:42:39;;;;;;;6.68;3.30;;;;;;;13.29;66.58;99658.06;10455553;28;20128;-60
2023/10/03 02:47:44;;;;;;;7.95;2.88;;;;;;;13.27;66.66;99657.34;10458017;28;20036;-60
2023/10/03 02:52:46;;;;;;;7.38;2.97;;;;;;;13.16;66.84;99644.16;10493529;28;20049;-60
2023/10/03 02:57:49;;;;;;;7.05;3.10;;;;;;;13.24;66.79;99644.44;10460212;28;20046;-60
2023/10/03 03:02:52;;;;;;;5.72;2.70;;;;;;;13.30;66.76;99641.34;10492770;28;20302;-59
2023/10/03 03:08:00;;;;;;;6.97;2.60;;;;;;;13.38;66.34;99634.56;10471065;28;20186;-60
2023/10/03 03:13:07;;;;;;;6.85;2.75;;;;;;;13.43;66.32;99634.25;10456983;28;20063;-60
2023/10/03 03:18:10;;;;;;;6.30;2.50;;;;;;;13.40;66.52;99631.81;10487944;28;20080;-60
2023/10/03 03:23:14;;;;;;;6.18;2.75;;;;;;;13.26;66.35;99621.50;10428937;28;20295;-60
2023/10/03 03:28:16;;;;;;;7.57;2.92;;;;;;;13.17;66.53;99619.59;10469054;28;20083;-60
2023/10/03 03:33:21;;;;;;;6.50;3.20;;;;;;;13.29;66.75;99613.41;10456551;28;20052;-60
2023/10/03 03:38:23;;;;;;;8.07;2.65;;;;;;;13.36;66.75;99604.94;10476271;28;20036;-60
2023/10/03 03:43:25;;;;;;;9.52;3.05;;;;;;;13.44;66.60;99601.75;10473090;28;20459;-60
2023/10/03 03:48:27;;;;;;;7.32;3.60;;;;;;;13.52;66.44;99604.63;10478918;28;20403;-60
2023/10/03 03:53:29;;;;;;;7.20;3.25;;;;;;;13.61;66.27;99612.66;10470499;28;20131;-60
2023/10/03 03:58:32;;;;;;;6.93;2.67;;;;;;;13.53;65.96;99595.81;10474984;28;20049;-60
2023/10/03 04:03:35;;;;;;;5.95;3.25;;;;;;;13.48;66.09;99587.44;10475036;28;20587;-60
2023/10/03 04:08:38;;;;;;;6.85;3.13;;;;;;;13.38;66.33;99597.78;10485567;28;20049;-60
2023/10/03 04:13:56;;;;;;;6.63;2.53;;;;;;;13.53;66.27;99598.44;10479513;28;20496;-60
2023/10/03 04:18:58;;;;;;;5.38;2.70;;;;;;;13.59;66.16;99595.34;10483966;28;20039;-60
2023/10/03 04:24:00;;;;;;;5.72;2.47;;;;;;;13.53;66.16;99574.78;10460483;28;20044;-60
2023/10/03 04:29:02;;;;;;;8.90;2.65;;;;;;;13.46;66.17;99560.44;10451895;28;20862;-60
2023/10/03 04:34:07;;;;;;;6.43;3.20;;;;;;;13.24;66.37;99566.47;10470452;28;20045;-60
2023/10/03 04:39:11;;;;;;;8.23;3.15;;;;;;;13.15;66.72;99568.97;10471962;28;20044;-60
2023/10/03 04:44:15;;;;;;;8.77;3.08;;;;;;;13.13;66.52;99571.69;10463442;28;20044;-60
2023/10/03 04:49:18;;;;;;;9.95;4.03;;;;;;;13.13;66.98;99557.75;10475464;28;20048;-60
2023/10/03 04:54:20;;;;;;;6.50;3.08;;;;;;;13.22;67.14;99551.78;10470524;28;20052;-60
2023/10/03 04:59:22;;;;;;;9.25;3.80;;;;;;;13.15;67.36;99574.25;10483649;28;20057;-60
2023/10/03 05:04:24;;;;;;;7.18;2.95;;;;;;;13.21;66.80;99565.91;10467569;28;20056;-60
2023/10/03 05:09:30;;;;;;;9.88;3.33;;;;;;;13.28;66.82;99577.59;10458797;28;20052;-60
2023/10/03 05:14:34;;;;;;;8.43;3.15;;;;;;;13.33;66.79;99563.13;10471992;28;20072;-60
2023/10/03 05:19:37;;;;;;;7.75;3.97;;;;;;;13.35;66.61;99568.28;10470837;28;20500;-60
2023/10/03 05:24:40;;;;;;;7.38;3.30;;;;;;;13.44;66.48;99564.97;10475150;28;20041;-60
2023/10/03 05:29:43;;;;;;;9.18;3.60;;;;;;;13.35;66.71;99563.03;10470567;28;20036;-60
2023/10/03 05:34:46;;;;;;;9.80;4.30;;;;;;;13.35;66.81;99579.63;10475363;28;20576;-60
2023/10/03 05:39:48;;;;;;;7.35;3.15;;;;;;;13.41;66.81;99573.88;10473773;28;20043;-60
2023/10/03 05:44:51;;;;;;;7.20;3.53;;;;;;;13.37;66.99;99585.59;10474281;28;20044;-60
2023/10/03 05:49:53;;;;;;;9.23;4.00;;;;;;;13.39;66.88;99588.94;10469477;28;20504;-60
2023/10/03 05:54:56;;;;;;;19.55;3.63;;;;;;;13.50;66.73;99596.03;10474194;28;20283;-60
2023/10/03 06:00:00;;;;;;;7.93;3.60;;;;;;;13.51;66.54;99590.69;10467196;28;20131;-60
2023/10/03 06:05:07;;;;;;;6.95;3.17;;;;;;;13.50;66.37;99589.00;10468979;28;20049;-60
2023/10/03 06:10:14;;;;;;;10.90;3.80;;;;;;;13.55;66.56;99597.38;10470754;28;20462;-60
2023/10/03 06:15:16;;;;;;;8.50;3.60;;;;;;;13.53;66.35;99598.44;10470548;28;20053;-60
2023/10/03 06:20:18;;;;;;;10.13;3.92;;;;;;;13.67;66.66;99598.19;10476318;28;20295;-60
2023/10/03 06:25:20;;;;;;;8.10;4.32;;;;;;;13.77;66.34;99607.03;10469799;28;20201;-60
2023/10/03 06:30:22;;;;;;;11.70;4.15;;;;;;;13.90;66.22;99606.94;10450065;28;20827;-60
2023/10/03 06:35:24;;;;;;;9.57;3.70;;;;;;;13.90;66.55;99623.53;10459932;28;20055;-60
2023/10/03 06:40:27;;;;;;;6.43;3.28;;;;;;;13.97;66.33;99619.47;10473710;28;20985;-60
2023/10/03 06:45:29;;;;;;;20.63;4.50;;;;;;;14.17;66.18;99631.03;10447817;28;20094;-60
2023/10/03 06:50:31;;;;;;;22.25;4.47;;;;;;;14.23;66.20;99628.75;10452777;28;20068;-60
2023/10/03 06:55:35;;;;;;;11.73;4.43;;;;;;;14.23;66.11;99636.66;10466814;28;20519;-60
2023/10/03 07:00:38;;;;;;;8.63;3.83;;;;;;;14.19;66.40;99642.25;10464790;28;20044;-60
2023/10/03 07:05:43;;;;;;;12.60;4.80;;;;;;;14.44;66.28;99653.38;10483913;28;20068;-60
2023/10/03 07:10:45;;;;;;;9.40;3.63;;;;;;;14.62;66.13;99647.59;10468993;28;20052;-60
2023/10/03 07:15:47;;;;;;;12.25;4.35;;;;;;;14.75;66.15;99648.28;10476118;28;20056;-60
2023/10/03 07:20:50;;;;;;;12.32;4.30;;;;;;;14.76;66.27;99668.41;10452474;28;20055;-60
2023/10/03 07:25:52;;;;;;;7.88;3.80;;;;;;;14.73;66.55;99660.72;10471880;28;20858;-60
2023/10/03 07:30:54;;;;;;;13.82;4.75;;;;;;;14.75;66.81;99629.84;10466816;28;20051;-62
2023/10/03 07:35:58;;;;;;;9.98;4.18;;;;;;;14.94;66.50;99637.94;10452263;28;20044;-62
2023/10/03 07:41:05;;;;;;;10.70;3.85;;;;;;;15.13;66.38;99672.31;10451242;28;20051;-62
2023/10/03 07:46:07;;;;;;;13.48;5.10;;;;;;;15.29;65.71;99667.44;10474942;28;20047;-62
2023/10/03 07:51:15;;;;;;;11.77;3.83;;;;;;;15.41;65.79;99674.31;10460968;28;20075;-62
2023/10/03 07:56:42;;;;;;;12.65;5.28;;;;;;;15.70;65.81;99687.72;10452131;28;20416;-62
2023/10/03 08:01:44;;;;;;;11.55;4.68;;;;;;;15.86;65.21;99709.19;10448868;28;20052;-62
2023/10/03 08:07:04;;;;;;;11.10;4.15;;;;;;;16.05;65.23;99693.47;10478641;28;20131;-62
2023/10/03 08:12:11;;;;;;;17.65;4.55;;;;;;;16.11;64.95;99695.59;10475568;28;20106;-61
2023/10/03 08:17:16;;;;;;;11.45;4.75;;;;;;;16.28;64.78;99709.97;10474548;28;20063;-62
2023/10/03 08:22:20;;;;;;;12.30;4.80;;;;;;;16.44;64.84;99712.97;10471575;28;20492;-62
2023/10/03 08:27:22;;;;;;;11.73;4.53;;;;;;;16.49;65.13;99694.94;10470927;28;20029;-62
2023/10/03 08:32:26;;;;;;;10.55;3.90;;;;;;;16.78;65.22;99704.59;10475002;28;20127;-62
2023/10/03 08:37:30;;;;;;;8.95;3.80;;;;;;;17.26;64.72;99715.19;10466630;28;20133;-62
2023/10/03 08:42:35;;;;;;;9.93;3.72;;;;;;;17.64;64.11;99709.91;10472613;28;20148;-62
2023/10/03 08:47:39;;;;;;;7.15;3.20;;;;;;;18.08;63.63;99719.00;10475185;28;20040;-62
2023/10/03 08:52:52;;;;;;;7.70;2.85;;;;;;;18.47;63.30;99709.94;10460101;28;20056;-62
2023/10/03 08:58:00;;;;;;;7.30;2.88;;;;;;;18.77;62.63;99723.88;10476018;28;20492;-62
2023/10/03 09:03:09;;;;;;;7.93;3.33;;;;;;;18.99;61.78;99711.00;10463463;28;20052;-62
2023/10/03 09:08:14;;;;;;;8.80;3.28;;;;;;;19.40;60.93;99705.16;10459423;28;20051;-62
2023/10/03 09:13:23;;;;;;;7.90;3.13;;;;;;;19.70;59.81;99693.28;10473631;28;20178;-62
2023/10/03 09:18:42;;;;;;;7.97;3.20;;;;;;;20.01;58.18;99718.38;10461060;28;20470;-62
2023/10/03 09:24:01;;;;;;;12.18;3.63;;;;;;;20.18;57.69;99708.69;10476343;28;20075;-62
2023/10/03 09:29:09;;;;;;;7.50;2.73;;;;;;;20.33;58.09;99709.78;10465248;28;20052;-62
2023/10/03 09:34:13;;;;;;;6.53;2.75;;;;;;;20.39;58.24;99713.63;10434177;28;20541;-62
2023/10/03 09:39:22;;;;;;;5.47;2.70;;;;;;;20.41;57.81;99707.16;10485032;28;20057;-62
2023/10/03 09:44:30;;;;;;;7.03;2.88;;;;;;;20.33;57.13;99723.06;10448080;28;20056;-62
2023/10/03 09:49:41;;;;;;;7.28;3.05;;;;;;;20.36;57.18;99724.56;10478457;28;20072;-62
2023/10/03 09:54:43;;;;;;;7.38;3.15;;;;;;;20.56;56.79;99732.13;10469531;28;20037;-62
2023/10/03 09:59:46;;;;;;;8.98;2.90;;;;;;;20.71;56.54;99727.91;10467677;28;20052;-62
2023/10/03 10:04:50;;;;;;;11.07;3.28;;;;;;;21.07;55.89;99726.66;10489257;28;20409;-62
2023/10/03 10:10:12;;;;;;;5.57;2.70;;;;;;;21.22;54.23;99718.03;10468731;28;20032;-62
2023/10/03 10:15:14;;;;;;;9.15;2.75;;;;;;;21.36;54.57;99730.72;10468283;28;20411;-62
2023/10/03 10:20:37;;;;;;;8.95;2.90;;;;;;;21.46;53.07;99731.38;10470656;28;20489;-62
2023/10/03 10:25:50;;;;;;;5.80;2.58;;;;;;;21.51;54.05;99745.03;10468617;28;20048;-62
2023/10/03 10:31:10;;;;;;;6.35;2.70;;;;;;;22.06;52.38;99730.06;10432601;28;20489;-62
2023/10/03 10:36:12;;;;;;;5.72;2.50;;;;;;;22.53;52.16;99736.25;10472333;28;20037;-62
2023/10/03 10:41:22;;;;;;;8.95;2.60;;;;;;;22.73;51.75;99735.81;10474110;28;20048;-62
2023/10/03 10:46:32;;;;;;;5.55;2.53;;;;;;;22.58;51.49;99739.22;10477174;28;20163;-62
2023/10/03 10:51:35;;;;;;;7.03;2.60;;;;;;;22.16;52.00;99744.03;10476197;28;20094;-62
2023/10/03 10:56:37;;;;;;;5.00;2.17;;;;;;;22.00;52.73;99732.53;10455552;28;20415;-62
2023/10/03 11:01:40;;;;;;;8.82;2.30;;;;;;;21.85;52.68;99729.72;10474504;28;20070;-62
2023/10/03 11:06:49;;;;;;;5.90;2.35;;;;;;;21.62;52.88;99726.91;10476934;28;20097;-62
2023/10/03 11:11:52;;;;;;;7.57;2.58;;;;;;;22.25;52.25;99723.53;10474372;28;20044;-62
2023/10/03 11:16:55;;;;;;;5.05;2.38;;;;;;;22.87;51.31;99714.63;10480365;28;20491;-62
2023/10/03 11:21:57;;;;;;;8.65;2.90;;;;;;;22.88;50.90;99707.47;10480406;28;20488;-62
2023/10/03 11:26:59;;;;;;;4.57;2.20;;;;;;;22.98;50.11;99710.72;10499231;28;20385;-62
2023/10/03 11:32:03;;;;;;;5.78;2.08;;;;;;;22.59;51.14;99705.41;10492802;28;20423;-62
2023/10/03 11:37:05;;;;;;;5.45;2.33;;;;;;;22.26;51.42;99703.88;10478655;28;20759;-62
2023/10/03 11:42:23;;;;;;;4.38;2.10;;;;;;;21.85;51.44;99717.25;10483192;28;20087;-62
2023/10/03 11:47:26;;;;;;;5.20;2.70;;;;;;;21.52;52.42;99709.44;10478182;28;20037;-61
2023/10/03 11:52:29;;;;;;;5.00;2.33;;;;;;;21.33;52.91;99699.97;10473962;28;20040;-62
2023/10/03 11:57:31;;;;;;;4.68;2.20;;;;;;;21.04;54.75;99721.69;10475597;28;20049;-62
2023/10/03 12:02:33;;;;;;;5.30;2.28;;;;;;;20.78;56.01;99705.00;10456215;28;20060;-62
2023/10/03 12:07:36;;;;;;;5.85;2.40;;;;;;;20.47;57.61;99717.16;10477872;28;20187;-62
2023/10/03 12:12:41;;;;;;;7.45;3.08;;;;;;;20.36;58.15;99713.97;10480626;28;20032;-62
2023/10/03 12:17:48;;;;;;;5.28;2.30;;;;;;;19.91;59.21;99715.00;10465954;28;20060;-62
2023/10/03 12:22:52;;;;;;;4.80;2.55;;;;;;;19.85;59.85;99720.09;10466652;28;20511;-62
2023/10/03 12:27:54;;;;;;;9.75;2.90;;;;;;;19.76;60.37;99727.16;10470401;28;20548;-62
2023/10/03 12:32:56;;;;;;;5.20;2.50;;;;;;;19.52;61.41;99747.38;10449651;28;20403;-62
2023/10/03 12:37:58;;;;;;;5.53;2.40;;;;;;;19.38;61.88;99761.97;10452190;28;20041;-62
2023/10/03 12:43:00;;;;;;;5.72;2.00;;;;;;;19.13;62.81;99791.91;10467828;28;20053;-62
2023/10/03 12:48:05;;;;;;;6.20;2.40;;;;;;;18.87;64.34;99797.00;10469187;28;20119;-62
2023/10/03 12:53:10;;;;;;;5.07;2.30;;;;;;;18.74;64.31;99785.94;10448805;28;20488;-61
2023/10/03 12:58:18;;;;;;;4.38;2.00;;;;;;;18.58;64.88;99798.97;10466987;28;20047;-62
2023/10/03 13:03:21;;;;;;;4.30;1.98;;;;;;;18.40;65.51;99806.84;10463898;28;21532;-62
2023/10/03 13:08:26;;;;;;;5.95;2.50;;;;;;;18.37;65.72;99830.13;10466896;28;20442;-62
2023/10/03 13:13:28;;;;;;;3.30;1.90;;;;;;;18.18;66.23;99827.50;10465540;28;20043;-62
2023/10/03 13:18:30;;;;;;;3.67;1.92;;;;;;;18.21;66.72;99814.00;10464040;28;20040;-61
2023/10/03 13:23:33;;;;;;;5.00;2.38;;;;;;;18.48;66.17;99836.06;10463792;28;20048;-61
2023/10/03 13:28:35;;;;;;;4.75;2.35;;;;;;;18.64;65.70;99846.06;10473487;28;20045;-62
2023/10/03 13:33:37;;;;;;;3.67;1.77;;;;;;;18.65;65.66;99858.34;10459884;28;20056;-62
2023/10/03 13:38:39;;;;;;;3.17;1.77;;;;;;;18.50;65.91;99884.44;10465347;28;20083;-62
2023/10/03 13:43:41;;;;;;;4.05;1.50;;;;;;;18.28;65.74;99905.94;10461351;28;20270;-61
2023/10/03 13:48:43;;;;;;;2.97;1.23;;;;;;;17.92;65.35;99916.34;10460161;28;20271;-61
2023/10/03 13:53:46;;;;;;;2.33;1.25;;;;;;;17.76;64.43;99944.22;10462427;28;20053;-61
2023/10/03 13:58:49;;;;;;;2.35;1.10;;;;;;;17.61;64.80;99948.22;10446248;28;20048;-61
2023/10/03 14:03:53;;;;;;;2.50;1.20;;;;;;;17.51;64.83;99973.78;10465896;28;20058;-61
2023/10/03 14:08:55;;;;;;;3.67;1.33;;;;;;;17.46;64.88;99980.47;10470207;28;20106;-61
2023/10/03 14:13:57;;;;;;;2.53;1.23;;;;;;;17.33;64.62;99983.31;10463669;28;20568;-62
2023/10/03 14:18:59;;;;;;;2.63;0.90;;;;;;;17.36;64.50;99996.28;10455455;28;20149;-62
2023/10/03 14:24:01;;;;;;;1.98;1.20;;;;;;;17.27;64.56;100026.13;10466889;28;20044;-61
2023/10/03 14:29:04;;;;;;;3.53;1.00;;;;;;;17.17;64.13;100050.81;10442456;28;20067;-61
2023/10/03 14:34:06;;;;;;;3.88;1.00;;;;;;;17.19;64.08;100057.66;10478068;28;20519;-61
2023/10/03 14:39:12;;;;;;;3.78;0.80;;;;;;;17.31;63.78;100061.91;10470682;28;20041;-61
2023/10/03 14:44:14;;;;;;;3.33;1.20;;;;;;;17.29;63.26;100074.41;10462748;28;20060;-61
2023/10/03 14:49:16;;;;;;;2.03;1.00;;;;;;;17.26;63.32;100082.59;10476622;28;20052;-61
2023/10/03 14:54:18;;;;;;;2.78;1.52;;;;;;;17.37;63.22;100090.50;10463815;28;20040;-62
2023/10/03 14:59:24;;;;;;;2.17;1.00;;;;;;;17.92;62.44;100096.28;10460943;28;20041;-61
2023/10/03 15:04:26;;;;;;;2.13;1.17;;;;;;;18.15;61.30;100111.00;10460308;28;20989;-61
2023/10/03 15:09:29;;;;;;;1.80;0.90;;;;;;;18.15;61.34;100122.44;10460994;28;20730;-61
2023/10/03 15:14:31;;;;;;;1.75;1.10;;;;;;;18.04;61.42;100124.31;10458373;28;20041;-61
2023/10/03 15:19:34;;;;;;;4.65;1.40;;;;;;;17.98;61.59;100108.97;10466945;28;20559;-61
2023/10/03 15:24:38;;;;;;;2.65;1.02;;;;;;;18.09;61.02;100128.25;10467540;28;20092;-62
2023/10/03 15:29:40;;;;;;;4.28;1.60;;;;;;;17.89;61.06;100149.50;10466078;28;20044;-62
2023/10/03 15:34:42;;;;;;;2.38;1.13;;;;;;;17.84;61.04;100166.59;10456186;28;20152;-62
2023/10/03 15:39:44;;;;;;;1.13;0.70;;;;;;;18.04;61.02;100170.16;10470787;28;20045;-61
2023/10/03 15:44:47;;;;;;;2.30;1.23;;;;;;;18.11;60.89;100184.56;10487222;28;20207;-62
2023/10/03 15:50:10;;;;;;;1.90;0.90;;;;;;;18.42;60.29;100191.50;10467901;28;20041;-63
2023/10/03 15:55:14;;;;;;;2.50;1.00;;;;;;;18.12;60.65;100198.59;10467411;28;20121;-63
2023/10/03 16:00:19;;;;;;;3.42;1.00;;;;;;;17.83;60.22;100206.44;10470768;28;20048;-63
2023/10/03 16:05:24;;;;;;;2.78;1.20;;;;;;;17.59;60.12;100224.34;10451893;28;20305;-62
2023/10/03 16:10:30;;;;;;;2.05;1.00;;;;;;;17.35;60.49;100244.91;10457377;28;20595;-62
2023/10/03 16:15:35;;;;;;;2.40;1.10;;;;;;;17.20;60.02;100265.47;10483816;28;20052;-62
2023/10/03 16:20:37;;;;;;;3.15;1.20;;;;;;;16.86;60.75;100266.53;10467202;28;20474;-62
2023/10/03 16:25:40;;;;;;;1.73;0.85;;;;;;;16.71;60.39;100275.72;10447887;28;20036;-63
2023/10/03 16:30:42;;;;;;;2.22;0.93;;;;;;;16.53;60.41;100285.09;10462463;28;20545;-62
2023/10/03 16:35:44;;;;;;;1.38;0.98;;;;;;;16.31;59.78;100306.16;10462001;28;20182;-62
2023/10/03 16:40:47;;;;;;;1.77;1.10;;;;;;;16.12;60.13;100328.69;10462369;28;20048;-62
2023/10/03 16:45:49;;;;;;;2.65;1.00;;;;;;;16.00;59.77;100345.44;10463588;28;20045;-62
2023/10/03 16:50:51;;;;;;;2.65;1.15;;;;;;;15.96;59.66;100362.47;10466713;28;20447;-62
2023/10/03 16:55:53;;;;;;;3.17;1.00;;;;;;;15.84;59.21;100366.00;10462897;28;20515;-62
2023/10/03 17:00:55;;;;;;;2.65;1.30;;;;;;;15.74;59.23;100386.13;10464793;28;20132;-62
2023/10/03 17:05:57;;;;;;;2.00;1.20;;;;;;;15.64;59.19;100405.34;10469463;28;20048;-62
2023/10/03 17:11:00;;;;;;;1.98;1.10;;;;;;;15.62;58.91;100418.66;10447876;28;20401;-62
2023/10/03 17:16:04;;;;;;;3.90;1.00;;;;;;;15.63;58.90;100430.91;10453014;28;20047;-62
2023/10/03 17:21:08;;;;;;;1.67;1.17;;;;;;;15.74;58.37;100453.84;10463003;28;20302;-62
2023/10/03 17:26:14;;;;;;;1.70;1.00;;;;;;;15.75;57.23;100471.34;10465922;28;20076;-62
2023/10/03 17:31:17;;;;;;;1.63;1.02;;;;;;;15.74;57.74;100481.06;10466321;28;20101;-62
2023/10/03 17:36:25;;;;;;;2.85;1.20;;;;;;;15.74;58.20;100506.56;10459778;28;20047;-62
2023/10/03 17:41:27;;;;;;;2.53;1.20;;;;;;;15.49;58.37;100525.06;10465328;28;20072;-62
2023/10/03 17:46:29;;;;;;;3.08;1.17;;;;;;;15.33;58.59;100533.19;10466606;28;20041;-62
2023/10/03 17:51:32;;;;;;;2.55;1.40;;;;;;;15.30;58.72;100541.34;10464995;28;20036;-62
2023/10/03 17:56:34;;;;;;;3.67;1.30;;;;;;;15.17;59.11;100569.47;10452316;28;20354;-62
2023/10/03 18:01:36;;;;;;;4.28;1.50;;;;;;;15.16;59.13;100584.44;10470853;28;20799;-62
2023/10/03 18:06:39;;;;;;;2.47;1.25;;;;;;;15.02;59.16;100602.16;10468419;28;20288;-62
2023/10/03 18:11:41;;;;;;;2.60;1.25;;;;;;;14.97;59.33;100604.22;10456929;28;20053;-62
2023/10/03 18:16:43;;;;;;;5.90;1.60;;;;;;;15.01;59.18;100616.25;10467384;28;20060;-60
2023/10/03 18:21:45;;;;;;;4.10;1.30;;;;;;;15.03;59.11;100619.63;10463298;28;20091;-60
2023/10/03 18:26:48;;;;;;;2.08;1.20;;;;;;;14.84;59.45;100632.34;10467485;28;20051;-60
2023/10/03 18:31:50;;;;;;;2.97;1.52;;;;;;;14.71;59.61;100628.81;10464537;28;20045;-60
2023/10/03 18:36:52;;;;;;;3.88;1.70;;;;;;;14.52;59.71;100639.69;10473698;28;20131;-60
2023/10/03 18:41:54;;;;;;;3.47;1.48;;;;;;;14.50;59.76;100647.72;10462779;28;20528;-60
2023/10/03 18:46:57;;;;;;;4.40;1.58;;;;;;;14.43;59.90;100640.28;10441876;28;20044;-60
2023/10/03 18:51:59;;;;;;;4.28;1.50;;;;;;;14.38;60.00;100658.13;10462889;28;20040;-60
2023/10/03 18:57:01;;;;;;;3.97;1.70;;;;;;;14.31;60.25;100669.97;10481562;28;20043;-60
2023/10/03 19:02:04;;;;;;;3.60;1.33;;;;;;;14.25;60.33;100689.63;10479638;28;20109;-60
2023/10/03 19:07:08;;;;;;;3.22;1.40;;;;;;;14.19;60.18;100711.06;10474417;28;20056;-60
2023/10/03 19:12:11;;;;;;;3.17;1.13;;;;;;;14.25;60.48;100731.75;10475060;28;20041;-60
2023/10/03 19:17:14;;;;;;;2.72;1.20;;;;;;;14.17;60.22;100741.03;10477059;28;20036;-60
2023/10/03 19:22:16;;;;;;;6.07;1.35;;;;;;;14.07;60.15;100751.28;10477037;28;20055;-60
2023/10/03 19:27:20;;;;;;;3.03;1.10;;;;;;;14.02;60.18;100760.41;10459683;28;20971;-60
2023/10/03 19:32:22;;;;;;;6.13;1.88;;;;;;;13.91;60.53;100774.19;10471300;28;20099;-60
2023/10/03 19:37:25;;;;;;;2.67;1.40;;;;;;;13.84;61.33;100782.56;10437463;28;20523;-60
2023/10/03 19:42:27;;;;;;;4.10;2.03;;;;;;;13.67;61.79;100792.28;10467753;28;20053;-59
2023/10/03 19:47:30;;;;;;;2.63;1.35;;;;;;;13.48;61.98;100796.06;10470516;28;20053;-60
2023/10/03 19:52:32;;;;;;;5.50;2.10;;;;;;;13.39;62.48;100805.28;10471853;28;20047;-60
2023/10/03 19:57:38;;;;;;;5.20;1.60;;;;;;;13.32;62.59;100821.50;10472737;28;20453;-60
2023/10/03 20:02:43;;;;;;;2.80;1.25;;;;;;;13.27;62.99;100826.19;10471973;28;20505;-60
2023/10/03 20:07:48;;;;;;;3.17;1.55;;;;;;;13.24;62.74;100839.47;10470925;28;20087;-59
2023/10/03 20:12:51;;;;;;;2.88;1.45;;;;;;;13.18;62.95;100848.56;10473549;28;20521;-60
2023/10/03 20:17:54;;;;;;;4.40;1.70;;;;;;;13.12;63.03;100856.78;10470565;28;20044;-60
2023/10/03 20:22:57;;;;;;;3.88;1.50;;;;;;;13.06;63.34;100870.25;10452904;28;20093;-60
2023/10/03 20:28:01;;;;;;;2.53;1.10;;;;;;;13.03;62.92;100866.94;10469166;28;20036;-59
2023/10/03 20:33:04;;;;;;;2.75;1.20;;;;;;;13.02;63.11;100867.88;10455523;28;21208;-59
2023/10/03 20:38:06;;;;;;;3.67;1.60;;;;;;;13.00;63.21;100867.09;10476256;28;20173;-60
2023/10/03 20:43:08;;;;;;;2.90;1.30;;;;;;;12.92;63.42;100870.97;10468336;28;20397;-60
2023/10/03 20:48:10;;;;;;;3.50;1.45;;;;;;;12.80;63.52;100876.06;10468620;28;20123;-60
2023/10/03 20:53:14;;;;;;;4.07;1.38;;;;;;;12.75;63.42;100884.19;10437718;28;20117;-60
2023/10/03 20:58:17;;;;;;;6.03;1.70;;;;;;;12.66;63.08;100879.41;10471608;28;20591;-60
2023/10/03 21:03:19;;;;;;;3.63;1.50;;;;;;;12.56;63.11;100878.22;10471362;28;20607;-60
2023/10/03 21:08:23;;;;;;;2.72;1.42;;;;;;;12.50;63.44;100877.69;10468206;28;20508;-60
2023/10/03 21:13:32;;;;;;;3.72;1.73;;;;;;;12.48;63.64;100882.16;10468850;28;20059;-60
2023/10/03 21:18:34;;;;;;;4.25;1.25;;;;;;;12.40;63.67;100892.22;10467357;28;20039;-60
2023/10/03 21:23:37;;;;;;;4.07;1.35;;;;;;;12.28;64.00;100901.56;10465984;28;20052;-59
2023/10/03 21:28:41;;;;;;;5.50;2.08;;;;;;;12.17;64.10;100897.78;10468652;28;20041;-60
2023/10/03 21:33:44;;;;;;;5.03;2.10;;;;;;;12.11;64.53;100891.91;10466914;28;20039;-60
2023/10/03 21:38:46;;;;;;;3.85;1.63;;;;;;;12.04;64.74;100897.56;10467700;28;20135;-60
2023/10/03 21:43:48;;;;;;;3.90;1.65;;;;;;;11.96;64.86;100897.94;10466648;28;20059;-60
2023/10/03 21:48:50;;;;;;;3.60;1.50;;;;;;;11.94;65.08;100899.78;10465183;28;20296;-60
2023/10/03 21:53:52;;;;;;;4.68;1.33;;;;;;;11.89;65.17;100903.53;10469859;28;20423;-60
2023/10/03 21:58:54;;;;;;;5.38;1.42;;;;;;;11.80;65.24;100910.13;10450865;28;20114;-60
2023/10/03 22:03:56;;;;;;;2.42;1.25;;;;;;;11.74;65.33;100909.56;10466365;28;20062;-59
2023/10/03 22:08:58;;;;;;;3.17;1.58;;;;;;;11.70;65.36;100910.63;10449451;28;20522;-60
2023/10/03 22:14:00;;;;;;;6.30;2.08;;;;;;;11.64;65.45;100917.00;10481250;28;20040;-59
2023/10/03 22:19:02;;;;;;;3.38;1.30;;;;;;;11.58;65.46;100922.53;10470493;28;20037;-60
2023/10/03 22:24:05;;;;;;;3.28;1.45;;;;;;;11.61;65.53;100926.78;10453023;28;20095;-59
2023/10/03 22:29:08;;;;;;;4.20;1.83;;;;;;;11.52;65.43;100932.50;10476316;28;20040;-60
2023/10/03 22:34:10;;;;;;;2.13;1.17;;;;;;;11.45;65.54;100936.31;10474644;28;20049;-60
2023/10/03 22:39:16;;;;;;;6.07;1.35;;;;;;;11.37;65.57;100930.59;10470556;28;20123;-60
2023/10/03 22:44:18;;;;;;;3.50;1.50;;;;;;;11.36;65.76;100932.34;10467024;28;20189;-60
2023/10/03 22:49:20;;;;;;;3.05;1.45;;;;;;;11.46;65.57;100927.53;10469796;28;20671;-59
2023/10/03 22:54:22;;;;;;;3.22;1.75;;;;;;;11.41;65.59;100916.41;10464840;28;20489;-60
2023/10/03 22:59:25;;;;;;;5.15;1.50;;;;;;;11.32;65.51;100915.94;10466681;28;20057;-59
2023/10/03 23:04:28;;;;;;;4.90;1.75;;;;;;;11.19;65.75;100906.94;10464668;28;20045;-60
2023/10/03 23:09:30;;;;;;;4.85;1.58;;;;;;;11.05;65.77;100914.59;10468396;28;20055;-60
2023/10/03 23:14:32;;;;;;;2.50;1.52;;;;;;;10.96;66.10;100908.91;10468871;28;20041;-59
2023/10/03 23:19:34;;;;;;;3.22;1.55;;;;;;;10.90;66.04;100912.66;10479986;28;20048;-59
2023/10/03 23:24:36;;;;;;;3.30;1.40;;;;;;;10.83;65.83;100918.22;10445332;28;20550;-59